Time;durP1;ratioP1;P1;durP2;ratioP2;P2;SDS_P1;SDS_P2;PMS_P1;PMS_P2;Temp;Humidity;BMP_temperature;BMP_pressure;BME280_temperature;BME280_humidity;BME280_pressure;Samples;Min_cycle;Max_cycle;Signal;HPM_P1;HPM_P2
2023/05/05 00:00:07;;;;;;;;;;;13.40;78.70;;;;;;5031568;28;19990;-72
2023/05/05 00:02:33;;;;;;;;;;;13.40;78.70;;;;;;5048597;28;19935;-72
2023/05/05 00:04:58;;;;;;;;;;;13.40;78.70;;;;;;5047800;28;19947;-72
2023/05/05 00:07:24;;;;;;;;;;;13.40;78.70;;;;;;5048459;28;19982;-72
2023/05/05 00:09:50;;;;;;;;;;;13.30;78.60;;;;;;5048344;28;19913;-72
2023/05/05 00:12:15;;;;;;;;;;;13.30;79.20;;;;;;5048403;28;19916;-72
2023/05/05 00:14:41;;;;;;;;;;;13.30;78.80;;;;;;5030500;28;19913;-72
2023/05/05 00:17:07;;;;;;;;;;;13.30;78.70;;;;;;5048303;28;19917;-72
2023/05/05 00:19:32;;;;;;;;;;;13.40;78.80;;;;;;5048384;28;19912;-72
2023/05/05 00:21:58;;;;;;;;;;;13.40;78.80;;;;;;5048283;28;19920;-72
2023/05/05 00:24:23;;;;;;;;;;;13.40;78.70;;;;;;5048200;28;19917;-72
2023/05/05 00:26:49;;;;;;;;;;;13.40;78.70;;;;;;5048089;28;19917;-72
2023/05/05 00:29:15;;;;;;;;;;;13.40;78.80;;;;;;5030371;28;19924;-72
2023/05/05 00:31:41;;;;;;;;;;;13.40;78.80;;;;;;5030296;28;20373;-72
2023/05/05 00:34:06;;;;;;;;;;;13.40;78.80;;;;;;5047881;28;20414;-72
2023/05/05 00:36:32;;;;;;;;;;;13.40;78.90;;;;;;5030124;28;19913;-72
2023/05/05 00:38:57;;;;;;;;;;;13.40;78.90;;;;;;5048084;28;20369;-72
2023/05/05 00:41:23;;;;;;;;;;;13.40;78.90;;;;;;5047923;28;19940;-72
2023/05/05 00:43:48;;;;;;;;;;;13.50;79.00;;;;;;5048006;28;20008;-72
2023/05/05 00:46:25;;;;;;;;;;;13.50;78.90;;;;;;5048011;28;19920;-72
2023/05/05 00:48:51;;;;;;;;;;;13.60;78.90;;;;;;5047940;28;20281;-72
2023/05/05 00:51:17;;;;;;;;;;;13.60;78.80;;;;;;5047892;28;20266;-72
2023/05/05 00:53:43;;;;;;;;;;;13.70;78.80;;;;;;5029985;28;19923;-72
2023/05/05 00:56:13;;;;;;;;;;;13.70;78.60;;;;;;5047733;28;19924;-72
2023/05/05 00:58:40;;;;;;;;;;;13.70;78.50;;;;;;5047864;28;19912;-72
2023/05/05 01:01:06;;;;;;;;;;;13.80;78.50;;;;;;5047807;28;19909;-72
2023/05/05 01:03:31;;;;;;;;;;;13.80;78.50;;;;;;5047839;28;19935;-72
2023/05/05 01:06:06;;;;;;;;;;;13.80;78.60;;;;;;5047683;28;20293;-72
2023/05/05 01:08:32;;;;;;;;;;;13.90;78.50;;;;;;5047658;28;19916;-72
2023/05/05 01:11:01;;;;;;;;;;;13.90;78.50;;;;;;5047681;28;19913;-72
2023/05/05 01:13:46;;;;;;;;;;;13.80;78.50;;;;;;5047478;28;19999;-72
2023/05/05 01:16:23;;;;;;;;;;;13.70;78.50;;;;;;5048067;28;20108;-72
2023/05/05 01:19:03;;;;;;;;;;;13.70;78.60;;;;;;5051782;28;19908;-72
2023/05/05 01:21:40;;;;;;;;;;;13.60;78.70;;;;;;5051788;28;19913;-72
2023/05/05 01:24:28;;;;;;;;;;;13.60;78.70;;;;;;5051621;28;19912;-72
2023/05/05 01:27:04;;;;;;;;;;;13.60;78.70;;;;;;5051120;28;19919;-72
2023/05/05 01:29:37;;;;;;;;;;;13.60;78.70;;;;;;5051485;28;19963;-72
2023/05/05 01:32:11;;;;;;;;;;;13.60;78.60;;;;;;5051661;28;20376;-72
2023/05/05 01:34:47;;;;;;;;;;;13.60;78.60;;;;;;5051205;28;19925;-72
2023/05/05 01:37:16;;;;;;;;;;;13.60;78.50;;;;;;5051327;28;19916;-72
2023/05/05 01:39:42;;;;;;;;;;;13.50;78.40;;;;;;5051259;28;19913;-72
2023/05/05 01:42:09;;;;;;;;;;;13.50;78.40;;;;;;5051279;28;20305;-72
2023/05/05 01:44:35;;;;;;;;;;;13.40;78.50;;;;;;5051067;28;19915;-72
2023/05/05 01:47:03;;;;;;;;;;;13.40;78.50;;;;;;5051170;28;19917;-72
2023/05/05 01:49:30;;;;;;;;;;;13.30;78.60;;;;;;5051558;28;20249;-72
2023/05/05 01:51:56;;;;;;;;;;;13.40;78.60;;;;;;5033258;28;20071;-72
2023/05/05 01:54:23;;;;;;;;;;;13.30;78.60;;;;;;5033273;28;19913;-72
2023/05/05 01:56:49;;;;;;;;;;;13.30;78.50;;;;;;5050915;28;19916;-72
2023/05/05 01:59:16;;;;;;;;;;;13.30;78.60;;;;;;5050891;28;19916;-72
2023/05/05 02:01:43;;;;;;;;;;;13.30;78.60;;;;;;5050835;28;20451;-72
2023/05/05 02:04:09;;;;;;;;;;;13.30;78.60;;;;;;5033307;28;20413;-72
2023/05/05 02:06:35;;;;;;;;;;;13.30;78.60;;;;;;5050764;28;19922;-72
2023/05/05 02:09:02;;;;;;;;;;;13.30;78.60;;;;;;5051148;28;19924;-72
2023/05/05 02:11:28;;;;;;;;;;;13.20;78.50;;;;;;5050703;28;20369;-72
2023/05/05 02:13:54;;;;;;;;;;;13.20;78.60;;;;;;5050692;28;19909;-72
2023/05/05 02:16:20;;;;;;;;;;;13.20;78.60;;;;;;5032788;28;19927;-72
2023/05/05 02:18:46;;;;;;;;;;;13.20;78.60;;;;;;5050484;28;19990;-72
2023/05/05 02:21:13;;;;;;;;;;;13.20;78.60;;;;;;5050543;28;19920;-72
2023/05/05 02:23:39;;;;;;;;;;;13.20;78.70;;;;;;5050469;28;19935;-72
2023/05/05 02:26:09;;;;;;;;;;;13.20;78.60;;;;;;5050601;28;20369;-72
2023/05/05 02:28:37;;;;;;;;;;;13.20;78.60;;;;;;5049773;28;19962;-72
2023/05/05 02:31:04;;;;;;;;;;;13.20;78.60;;;;;;5050428;28;19909;-72
2023/05/05 02:33:32;;;;;;;;;;;13.20;78.70;;;;;;5050070;28;20394;-73
2023/05/05 02:36:03;;;;;;;;;;;13.20;78.60;;;;;;5032398;28;19917;-72
2023/05/05 02:38:29;;;;;;;;;;;13.20;78.60;;;;;;5050289;28;19999;-72
2023/05/05 02:40:56;;;;;;;;;;;13.10;78.60;;;;;;5050184;28;19995;-72
2023/05/05 02:43:24;;;;;;;;;;;13.00;78.60;;;;;;5050049;28;19909;-72
2023/05/05 02:45:50;;;;;;;;;;;13.00;78.60;;;;;;5050096;28;19917;-72
2023/05/05 02:48:15;;;;;;;;;;;13.00;78.70;;;;;;5050066;28;19971;-72
2023/05/05 02:50:41;;;;;;;;;;;13.00;78.80;;;;;;5049889;28;20003;-72
2023/05/05 02:53:06;;;;;;;;;;;13.00;78.80;;;;;;5049902;28;19913;-72
2023/05/05 02:55:41;;;;;;;;;;;13.00;78.80;;;;;;5049943;28;19988;-72
2023/05/05 02:58:12;;;;;;;;;;;13.00;78.80;;;;;;5049998;28;19962;-72
2023/05/05 03:01:02;;;;;;;;;;;13.10;78.80;;;;;;5049925;28;19963;-72
2023/05/05 03:03:35;;;;;;;;;;;13.10;79.40;;;;;;5044142;28;19915;-72
2023/05/05 03:06:15;;;;;;;;;;;13.10;78.80;;;;;;5031852;28;20353;-72
2023/05/05 03:08:57;;;;;;;;;;;13.10;78.80;;;;;;5031858;28;19920;-72
2023/05/05 03:11:26;;;;;;;;;;;13.20;78.90;;;;;;5049584;28;19952;-72
2023/05/05 03:13:56;;;;;;;;;;;13.20;78.80;;;;;;5049448;28;19916;-72
2023/05/05 03:16:23;;;;;;;;;;;13.10;78.70;;;;;;5049575;28;19963;-72
2023/05/05 03:18:49;;;;;;;;;;;13.10;78.80;;;;;;5049582;28;19908;-72
2023/05/05 03:21:15;;;;;;;;;;;13.10;78.70;;;;;;5049323;28;20011;-72
2023/05/05 03:23:41;;;;;;;;;;;13.10;78.80;;;;;;5049310;28;20015;-72
2023/05/05 03:26:06;;;;;;;;;;;13.10;78.80;;;;;;5049281;28;19924;-72
2023/05/05 03:28:32;;;;;;;;;;;13.10;78.80;;;;;;5049333;28;19913;-72
2023/05/05 03:30:58;;;;;;;;;;;13.10;78.80;;;;;;5031370;28;19955;-72
2023/05/05 03:33:23;;;;;;;;;;;13.10;78.80;;;;;;5048870;28;19917;-72
2023/05/05 03:35:49;;;;;;;;;;;13.00;78.80;;;;;;5031227;28;19917;-72
2023/05/05 03:38:14;;;;;;;;;;;13.00;78.80;;;;;;5049027;28;19924;-72
2023/05/05 03:40:40;;;;;;;;;;;13.00;78.90;;;;;;5048008;28;19917;-72
2023/05/05 03:43:06;;;;;;;;;;;13.00;78.90;;;;;;5031136;28;19913;-72
2023/05/05 03:45:32;;;;;;;;;;;13.00;78.80;;;;;;5048809;28;19932;-72
2023/05/05 03:47:57;;;;;;;;;;;13.00;78.90;;;;;;5048961;28;19913;-72
2023/05/05 03:50:23;;;;;;;;;;;12.90;78.80;;;;;;5048842;28;20003;-72
2023/05/05 03:52:49;;;;;;;;;;;12.90;78.80;;;;;;5048836;28;19913;-72
2023/05/05 03:55:14;;;;;;;;;;;12.90;78.80;;;;;;5048690;28;20015;-72
2023/05/05 03:57:40;;;;;;;;;;;12.90;78.80;;;;;;5048932;28;19912;-72
2023/05/05 04:00:10;;;;;;;;;;;12.90;79.30;;;;;;5048631;28;19913;-72
2023/05/05 04:02:43;;;;;;;;;;;12.80;78.70;;;;;;5105547;27;19916;-72
2023/05/05 04:05:09;;;;;;;;;;;12.80;78.70;;;;;;5105620;28;19951;-71
2023/05/05 04:07:34;;;;;;;;;;;12.80;78.80;;;;;;5103921;28;20447;-71
2023/05/05 04:10:00;;;;;;;;;;;12.80;78.80;;;;;;5105514;28;19919;-71
2023/05/05 04:12:25;;;;;;;;;;;12.80;78.80;;;;;;5104216;28;20296;-72
2023/05/05 04:14:51;;;;;;;;;;;12.80;78.80;;;;;;5105398;28;19916;-71
2023/05/05 04:17:17;;;;;;;;;;;12.80;78.80;;;;;;5105404;28;19912;-72
2023/05/05 04:19:42;;;;;;;;;;;12.90;78.90;;;;;;5105363;28;19916;-71
2023/05/05 04:22:08;;;;;;;;;;;12.90;78.90;;;;;;5105145;28;19919;-72
2023/05/05 04:24:33;;;;;;;;;;;12.90;78.90;;;;;;5086999;28;19912;-72
2023/05/05 04:26:59;;;;;;;;;;;13.00;78.90;;;;;;5105263;28;20280;-72
2023/05/05 04:29:24;;;;;;;;;;;13.00;78.90;;;;;;5105190;28;19923;-72
2023/05/05 04:31:50;;;;;;;;;;;13.00;78.90;;;;;;5105139;28;19919;-72
2023/05/05 04:34:16;;;;;;;;;;;13.00;78.90;;;;;;5105068;28;20057;-72
2023/05/05 04:36:41;;;;;;;;;;;13.00;78.90;;;;;;5104926;28;19915;-72
2023/05/05 04:39:07;;;;;;;;;;;13.00;78.90;;;;;;5104871;28;19970;-72
2023/05/05 04:41:33;;;;;;;;;;;13.00;79.00;;;;;;5104868;28;20372;-72
2023/05/05 04:43:58;;;;;;;;;;;13.10;79.00;;;;;;5104893;28;20433;-72
2023/05/05 04:46:24;;;;;;;;;;;13.10;79.30;;;;;;5104874;28;20457;-72
2023/05/05 04:48:50;;;;;;;;;;;13.10;79.00;;;;;;5103216;28;19934;-70
2023/05/05 04:51:15;;;;;;;;;;;13.10;79.00;;;;;;5103328;28;19935;-72
2023/05/05 04:53:41;;;;;;;;;;;13.20;79.10;;;;;;5103443;28;20269;-73
2023/05/05 04:56:06;;;;;;;;;;;13.20;79.10;;;;;;5103365;28;19919;-72
2023/05/05 04:58:32;;;;;;;;;;;13.20;79.00;;;;;;5104347;28;19912;-72
2023/05/05 05:00:58;;;;;;;;;;;13.30;79.10;;;;;;5103900;28;20396;-72
2023/05/05 05:03:23;;;;;;;;;;;13.30;79.00;;;;;;5104109;28;20007;-72
2023/05/05 05:05:49;;;;;;;;;;;13.30;79.00;;;;;;5104171;28;19961;-72
2023/05/05 05:08:16;;;;;;;;;;;13.30;79.00;;;;;;5104056;28;20345;-73
2023/05/05 05:10:42;;;;;;;;;;;13.30;79.10;;;;;;5102531;28;19947;-72
2023/05/05 05:13:08;;;;;;;;;;;13.20;79.10;;;;;;5094272;28;19912;-72
2023/05/05 05:15:33;;;;;;;;;;;13.20;79.10;;;;;;5090316;28;19981;-72
2023/05/05 05:17:59;;;;;;;;;;;13.20;79.10;;;;;;5090128;28;19924;-72
2023/05/05 05:20:24;;;;;;;;;;;13.30;79.20;;;;;;5071253;28;20380;-72
2023/05/05 05:22:50;;;;;;;;;;;13.30;79.20;;;;;;5089950;28;19937;-72
2023/05/05 05:25:16;;;;;;;;;;;13.30;79.10;;;;;;5090039;28;19920;-72
2023/05/05 05:27:41;;;;;;;;;;;13.30;79.10;;;;;;5090281;28;20376;-72
2023/05/05 05:30:07;;;;;;;;;;;13.30;79.10;;;;;;5090181;28;20014;-72
2023/05/05 05:32:32;;;;;;;;;;;13.30;79.10;;;;;;5089957;28;19912;-72
2023/05/05 05:34:58;;;;;;;;;;;13.30;79.10;;;;;;5090418;28;20437;-72
2023/05/05 05:37:27;;;;;;;;;;;13.40;79.10;;;;;;5090290;28;19912;-72
2023/05/05 05:39:52;;;;;;;;;;;13.40;79.00;;;;;;5090387;28;19991;-72
2023/05/05 05:42:18;;;;;;;;;;;13.40;78.90;;;;;;5089975;28;20014;-71
2023/05/05 05:44:43;;;;;;;;;;;13.30;78.90;;;;;;5089034;28;19912;-72
2023/05/05 05:47:09;;;;;;;;;;;13.30;79.00;;;;;;5089938;28;19995;-72
2023/05/05 05:49:35;;;;;;;;;;;13.30;79.10;;;;;;5088818;28;19970;-72
2023/05/05 05:52:00;;;;;;;;;;;13.30;79.20;;;;;;5090001;28;20310;-72
2023/05/05 05:54:26;;;;;;;;;;;13.30;79.10;;;;;;5089928;28;19938;-72
2023/05/05 05:56:52;;;;;;;;;;;13.30;79.10;;;;;;5089610;28;19984;-72
2023/05/05 05:59:17;;;;;;;;;;;13.30;79.10;;;;;;5089106;28;19912;-72
2023/05/05 06:01:43;;;;;;;;;;;13.40;79.20;;;;;;5088730;28;20006;-72
2023/05/05 06:04:08;;;;;;;;;;;13.40;79.10;;;;;;5089367;28;20002;-72
2023/05/05 06:06:34;;;;;;;;;;;13.40;79.20;;;;;;5089094;28;19908;-72
2023/05/05 06:08:59;;;;;;;;;;;13.40;79.10;;;;;;5088997;28;19969;-72
2023/05/05 06:11:25;;;;;;;;;;;13.40;79.60;;;;;;5089058;28;19916;-72
2023/05/05 06:13:51;;;;;;;;;;;13.40;79.10;;;;;;5087470;28;19914;-72
2023/05/05 06:16:16;;;;;;;;;;;13.50;79.20;;;;;;5088699;28;20109;-72
2023/05/05 06:18:42;;;;;;;;;;;13.50;79.20;;;;;;5088982;28;19912;-72
2023/05/05 06:21:07;;;;;;;;;;;13.60;79.20;;;;;;5089146;28;19920;-72
2023/05/05 06:23:33;;;;;;;;;;;13.70;79.20;;;;;;5089008;28;19912;-72
2023/05/05 06:25:58;;;;;;;;;;;13.90;79.80;;;;;;5088573;28;20105;-72
2023/05/05 06:28:24;;;;;;;;;;;14.20;79.60;;;;;;5089076;28;20360;-72
2023/05/05 06:30:50;;;;;;;;;;;14.20;78.80;;;;;;5089212;28;19912;-72
2023/05/05 06:33:16;;;;;;;;;;;14.20;78.70;;;;;;5089503;28;19916;-72
2023/05/05 06:35:41;;;;;;;;;;;14.20;78.80;;;;;;5088883;28;20437;-72
2023/05/05 06:38:08;;;;;;;;;;;14.10;78.90;;;;;;5088646;28;20014;-72
2023/05/05 06:40:34;;;;;;;;;;;14.10;79.10;;;;;;5088964;28;20352;-72
2023/05/05 06:42:59;;;;;;;;;;;14.10;79.30;;;;;;5088819;28;19927;-71
2023/05/05 06:45:25;;;;;;;;;;;14.20;79.40;;;;;;5088920;28;19958;-71
2023/05/05 06:47:51;;;;;;;;;;;14.30;79.40;;;;;;5088736;28;19962;-71
2023/05/05 06:50:17;;;;;;;;;;;14.40;79.30;;;;;;5088800;28;19951;-71
2023/05/05 06:52:42;;;;;;;;;;;14.40;79.20;;;;;;5088669;28;19912;-71
2023/05/05 06:55:08;;;;;;;;;;;14.40;79.10;;;;;;5087292;28;19981;-71
2023/05/05 06:57:34;;;;;;;;;;;14.40;79.10;;;;;;5088584;28;19912;-71
2023/05/05 07:00:04;;;;;;;;;;;14.40;79.20;;;;;;5088009;28;20369;-71
2023/05/05 07:02:30;;;;;;;;;;;14.40;79.20;;;;;;5087972;28;19924;-71
2023/05/05 07:04:56;;;;;;;;;;;14.50;79.30;;;;;;5088170;28;20027;-72
2023/05/05 07:07:21;;;;;;;;;;;14.50;79.30;;;;;;5088193;28;20391;-72
2023/05/05 07:09:47;;;;;;;;;;;14.50;79.40;;;;;;5088210;28;19922;-72
2023/05/05 07:12:12;;;;;;;;;;;14.90;80.50;;;;;;5088085;28;19958;-72
2023/05/05 07:14:38;;;;;;;;;;;16.10;81.30;;;;;;5087968;28;19912;-72
2023/05/05 07:17:04;;;;;;;;;;;17.60;80.40;;;;;;5088071;28;19917;-71
2023/05/05 07:19:29;;;;;;;;;;;18.90;79.50;;;;;;5088010;28;20296;-72
2023/05/05 07:21:55;;;;;;;;;;;20.00;78.80;;;;;;5087774;28;19920;-72
2023/05/05 07:24:20;;;;;;;;;;;20.80;77.70;;;;;;5088024;28;20310;-73
2023/05/05 07:26:46;;;;;;;;;;;20.90;76.50;;;;;;5087921;28;19970;-72
2023/05/05 07:29:11;;;;;;;;;;;20.30;76.20;;;;;;5087700;28;19970;-72
2023/05/05 07:31:37;;;;;;;;;;;20.10;77.60;;;;;;5087991;28;19977;-72
2023/05/05 07:34:02;;;;;;;;;;;20.00;78.00;;;;;;5087589;28;20444;-72
2023/05/05 07:36:28;;;;;;;;;;;20.10;78.30;;;;;;5085956;28;19916;-72
2023/05/05 07:38:54;;;;;;;;;;;20.80;79.10;;;;;;5087569;28;20240;-72
2023/05/05 07:41:20;;;;;;;;;;;21.70;78.90;;;;;;5087274;28;20437;-72
2023/05/05 07:43:45;;;;;;;;;;;22.00;78.20;;;;;;5087253;28;19952;-74
2023/05/05 07:46:11;;;;;;;;;;;22.40;78.60;;;;;;5087097;28;19912;-73
2023/05/05 07:48:39;;;;;;;;;;;23.30;78.90;;;;;;5085338;28;19908;-72
2023/05/05 07:51:05;;;;;;;;;;;24.40;78.30;;;;;;5085543;28;19927;-72
2023/05/05 07:53:31;;;;;;;;;;;25.00;77.70;;;;;;5085599;28;20396;-72
2023/05/05 07:55:56;;;;;;;;;;;25.60;77.60;;;;;;5085754;28;20364;-73
2023/05/05 07:58:22;;;;;;;;;;;25.70;77.20;;;;;;5087160;28;19916;-72
2023/05/05 08:00:49;;;;;;;;;;;26.10;77.70;;;;;;5086706;28;19925;-73
2023/05/05 08:03:14;;;;;;;;;;;25.90;76.90;;;;;;5085172;28;19912;-72
2023/05/05 08:05:40;;;;;;;;;;;25.40;77.00;;;;;;5086741;28;19923;-73
2023/05/05 08:08:06;;;;;;;;;;;25.20;77.70;;;;;;5087129;28;19919;-73
2023/05/05 08:10:32;;;;;;;;;;;25.60;78.50;;;;;;5086874;28;19916;-71
2023/05/05 08:12:57;;;;;;;;;;;25.80;78.60;;;;;;5087031;28;19958;-73
2023/05/05 08:15:23;;;;;;;;;;;26.50;79.20;;;;;;5086972;28;19916;-75
2023/05/05 08:17:50;;;;;;;;;;;26.90;78.70;;;;;;5086968;28;19916;-75
2023/05/05 08:20:16;;;;;;;;;;;26.20;76.90;;;;;;5086728;28;20185;-74
2023/05/05 08:22:42;;;;;;;;;;;24.90;76.30;;;;;;5086339;28;20383;-74
2023/05/05 08:25:09;;;;;;;;;;;23.70;77.20;;;;;;5086086;28;19919;-75
2023/05/05 08:27:36;;;;;;;;;;;22.80;78.30;;;;;;5086218;28;19912;-73
2023/05/05 08:30:02;;;;;;;;;;;22.40;79.60;;;;;;5086639;28;20435;-74
2023/05/05 08:32:28;;;;;;;;;;;22.50;80.30;;;;;;5086477;28;19916;-74
2023/05/05 08:34:53;;;;;;;;;;;22.50;79.70;;;;;;5085728;28;19919;-74
2023/05/05 08:37:19;;;;;;;;;;;22.40;79.40;;;;;;5086522;28;20305;-74
2023/05/05 08:39:45;;;;;;;;;;;22.10;79.30;;;;;;5087158;28;19916;-75
2023/05/05 08:42:10;;;;;;;;;;;22.00;79.50;;;;;;5086802;28;19952;-72
2023/05/05 08:44:36;;;;;;;;;;;22.00;79.90;;;;;;5086015;28;19912;-72
2023/05/05 08:47:02;;;;;;;;;;;22.10;80.10;;;;;;5086657;28;19916;-74
2023/05/05 08:49:30;;;;;;;;;;;22.40;80.20;;;;;;5089587;28;19941;-73
2023/05/05 08:52:00;;;;;;;;;;;22.80;80.80;;;;;;5087703;28;20300;-74
2023/05/05 08:54:26;;;;;;;;;;;23.80;81.40;;;;;;5089436;28;19919;-73
2023/05/05 08:56:52;;;;;;;;;;;24.00;79.70;;;;;;5090327;28;19911;-75
2023/05/05 08:59:20;;;;;;;;;;;23.60;78.80;;;;;;5090357;28;19919;-73
2023/05/05 09:01:46;;;;;;;;;;;23.10;78.70;;;;;;5089231;28;20380;-74
2023/05/05 09:04:11;;;;;;;;;;;22.70;79.00;;;;;;5089569;28;19973;-71
2023/05/05 09:06:37;;;;;;;;;;;22.70;79.70;;;;;;5089852;28;19913;-71
2023/05/05 09:09:02;;;;;;;;;;;22.80;80.20;;;;;;5089362;28;20399;-71
2023/05/05 09:11:28;;;;;;;;;;;22.80;79.70;;;;;;5089752;28;19912;-72
2023/05/05 09:13:54;;;;;;;;;;;22.60;79.40;;;;;;5089771;28;19962;-71
2023/05/05 09:16:20;;;;;;;;;;;22.60;79.70;;;;;;5090381;28;19916;-71
2023/05/05 09:18:46;;;;;;;;;;;22.50;79.30;;;;;;5090476;28;19920;-71
2023/05/05 09:21:21;;;;;;;;;;;22.70;80.60;;;;;;5090625;28;19989;-72
2023/05/05 09:24:06;;;;;;;;;;;22.80;79.70;;;;;;5089608;28;20382;-71
2023/05/05 09:26:33;;;;;;;;;;;22.70;80.30;;;;;;5089853;28;19981;-72
2023/05/05 09:28:59;;;;;;;;;;;23.60;81.80;;;;;;5090881;28;19976;-71
2023/05/05 09:31:25;;;;;;;;;;;24.40;80.70;;;;;;5090205;28;20003;-71
2023/05/05 09:33:50;;;;;;;;;;;24.20;79.30;;;;;;5089127;28;20074;-71
2023/05/05 09:36:16;;;;;;;;;;;23.80;79.00;;;;;;5090334;28;19919;-71
2023/05/05 09:39:01;;;;;;;;;;;23.30;78.90;;;;;;5090749;28;20348;-71
2023/05/05 09:41:37;;;;;;;;;;;22.80;79.20;;;;;;5090046;28;19920;-71
2023/05/05 09:44:02;;;;;;;;;;;22.40;79.60;;;;;;5088154;28;19908;-71
2023/05/05 09:46:28;;;;;;;;;;;22.20;79.60;;;;;;5090262;28;20371;-71
2023/05/05 09:48:54;;;;;;;;;;;22.10;79.80;;;;;;5089369;28;19912;-72
2023/05/05 09:51:27;;;;;;;;;;;22.30;80.50;;;;;;5089187;28;19916;-71
2023/05/05 09:53:53;;;;;;;;;;;22.40;80.00;;;;;;5089153;28;20534;-71
2023/05/05 09:56:19;;;;;;;;;;;22.40;80.10;;;;;;5089248;28;19920;-71
2023/05/05 09:58:45;;;;;;;;;;;22.50;80.10;;;;;;5086523;28;19916;-72
2023/05/05 10:01:23;;;;;;;;;;;22.60;79.80;;;;;;5089467;28;20298;-71
2023/05/05 10:03:49;;;;;;;;;;;22.30;79.40;;;;;;5088099;28;19987;-72
2023/05/05 10:06:15;;;;;;;;;;;21.80;79.40;;;;;;5090518;28;20668;-73
2023/05/05 10:08:40;;;;;;;;;;;21.40;79.90;;;;;;5090943;28;19938;-74
2023/05/05 10:11:06;;;;;;;;;;;21.30;80.00;;;;;;5089447;28;20506;-71
2023/05/05 10:13:36;;;;;;;;;;;21.40;80.90;;;;;;5090516;28;19957;-75
2023/05/05 10:16:03;;;;;;;;;;;22.30;82.10;;;;;;5088679;28;19908;-75
2023/05/05 10:18:30;;;;;;;;;;;23.00;81.10;;;;;;5089777;28;19908;-74
2023/05/05 10:21:00;;;;;;;;;;;23.10;79.90;;;;;;5089328;28;20311;-73
2023/05/05 10:23:38;;;;;;;;;;;23.20;80.20;;;;;;5089817;28;19908;-72
2023/05/05 10:26:08;;;;;;;;;;;24.00;80.90;;;;;;5089743;28;19912;-73
2023/05/05 10:28:40;;;;;;;;;;;24.00;80.00;;;;;;5089894;28;20029;-73
2023/05/05 10:31:09;;;;;;;;;;;24.00;80.10;;;;;;5089667;28;19909;-77
2023/05/05 10:33:43;;;;;;;;;;;23.80;79.70;;;;;;5089967;28;19914;-74
2023/05/05 10:36:09;;;;;;;;;;;23.60;79.70;;;;;;5090125;28;19961;-73
2023/05/05 10:38:36;;;;;;;;;;;23.60;80.70;;;;;;5090188;28;20597;-73
2023/05/05 10:41:02;;;;;;;;;;;23.80;80.60;;;;;;5089780;28;19965;-76
2023/05/05 10:43:28;;;;;;;;;;;23.90;80.20;;;;;;5088399;28;19925;-74
2023/05/05 10:45:54;;;;;;;;;;;23.70;79.50;;;;;;5089787;28;19912;-76
2023/05/05 10:48:46;;;;;;;;;;;23.40;79.30;;;;;;5089443;28;20240;-74
2023/05/05 10:51:21;;;;;;;;;;;23.40;80.70;;;;;;5085069;28;20386;-74
2023/05/05 10:54:11;;;;;;;;;;;24.20;81.50;;;;;;5089363;28;19928;-75
2023/05/05 10:56:39;;;;;;;;;;;25.10;81.80;;;;;;5079887;28;19944;-74
2023/05/05 10:59:24;;;;;;;;;;;26.20;81.70;;;;;;5088697;28;19968;-73
2023/05/05 11:01:50;;;;;;;;;;;26.80;81.20;;;;;;5087127;28;19949;-74
2023/05/05 11:04:17;;;;;;;;;;;27.30;81.30;;;;;;5089066;28;20241;-72
2023/05/05 11:07:02;;;;;;;;;;;27.80;81.50;;;;;;5087263;28;20434;-75
2023/05/05 11:09:28;;;;;;;;;;;28.30;81.40;;;;;;5088266;28;19962;-72
2023/05/05 11:12:05;;;;;;;;;;;28.80;81.50;;;;;;5087373;28;19916;-73
2023/05/05 11:14:31;;;;;;;;;;;29.10;81.20;;;;;;5086132;28;19948;-73
2023/05/05 11:16:57;;;;;;;;;;;28.80;80.70;;;;;;5088241;28;19942;-72
2023/05/05 11:19:41;;;;;;;;;;;28.70;81.50;;;;;;5088691;28;19958;-73
2023/05/05 11:22:06;;;;;;;;;;;28.90;81.70;;;;;;5088638;28;19912;-71
2023/05/05 11:24:32;;;;;;;;;;;29.00;81.60;;;;;;5088844;28;19919;-73
2023/05/05 11:26:58;;;;;;;;;;;29.00;81.50;;;;;;5087356;28;19916;-76
2023/05/05 11:29:24;;;;;;;;;;;29.00;81.10;;;;;;5088639;28;19942;-72
2023/05/05 11:32:12;;;;;;;;;;;28.80;81.10;;;;;;5088200;28;19912;-72
2023/05/05 11:34:48;;;;;;;;;;;28.40;80.30;;;;;;5085318;28;19908;-73
2023/05/05 11:37:15;;;;;;;;;;;27.70;80.00;;;;;;5088333;28;19915;-74
2023/05/05 11:39:49;;;;;;;;;;;27.00;79.50;;;;;;5088821;28;19945;-72
2023/05/05 11:42:18;;;;;;;;;;;26.20;79.50;;;;;;5088749;28;19916;-71
2023/05/05 11:44:44;;;;;;;;;;;25.50;79.90;;;;;;5088193;28;19935;-72
2023/05/05 11:47:09;;;;;;;;;;;25.00;80.30;;;;;;5088345;28;19912;-72
2023/05/05 11:49:38;;;;;;;;;;;24.80;80.40;;;;;;5088299;28;19927;-72
2023/05/05 11:52:11;;;;;;;;;;;25.20;82.10;;;;;;5088326;28;19935;-71
2023/05/05 11:54:46;;;;;;;;;;;26.10;82.60;;;;;;5088411;28;19908;-72
2023/05/05 11:57:12;;;;;;;;;;;26.40;81.50;;;;;;5088758;28;19995;-71
2023/05/05 11:59:57;;;;;;;;;;;26.90;82.10;;;;;;5086953;28;19995;-73
2023/05/05 12:02:23;;;;;;;;;;;27.30;81.80;;;;;;5087779;28;20441;-75
2023/05/05 12:04:49;;;;;;;;;;;28.00;82.20;;;;;;5088452;28;19916;-72
2023/05/05 12:07:18;;;;;;;;;;;28.30;81.70;;;;;;5088245;28;19918;-72
2023/05/05 12:09:45;;;;;;;;;;;27.90;80.10;;;;;;5088493;28;19923;-73
2023/05/05 12:12:10;;;;;;;;;;;27.10;79.30;;;;;;5088456;28;19908;-73
2023/05/05 12:14:43;;;;;;;;;;;26.20;79.30;;;;;;5088798;28;20363;-74
2023/05/05 12:17:09;;;;;;;;;;;25.60;79.80;;;;;;5088792;28;19931;-74
2023/05/05 12:19:35;;;;;;;;;;;25.80;81.80;;;;;;5087900;28;19912;-73
2023/05/05 12:22:01;;;;;;;;;;;26.60;82.70;;;;;;5088137;28;19927;-74
2023/05/05 12:24:26;;;;;;;;;;;27.40;82.50;;;;;;5091257;28;19947;-74
2023/05/05 12:26:52;;;;;;;;;;;28.00;82.70;;;;;;5092158;28;20016;-74
2023/05/05 12:29:24;;;;;;;;;;;28.60;82.20;;;;;;5092402;28;19946;-74
2023/05/05 12:31:50;;;;;;;;;;;28.80;82.30;;;;;;5092232;28;19914;-74
2023/05/05 12:34:16;;;;;;;;;;;28.80;82.40;;;;;;5091032;28;19916;-74
2023/05/05 12:36:42;;;;;;;;;;;28.70;82.30;;;;;;5088840;28;19918;-76
2023/05/05 12:39:08;;;;;;;;;;;29.00;82.80;;;;;;5091587;28;20356;-75
2023/05/05 12:41:33;;;;;;;;;;;29.30;83.30;;;;;;5093006;28;19920;-79
2023/05/05 12:44:00;;;;;;;;;;;29.50;82.30;;;;;;5093349;28;20315;-78
2023/05/05 12:46:26;;;;;;;;;;;29.20;82.00;;;;;;5093428;28;20301;-76
2023/05/05 12:49:03;;;;;;;;;;;28.70;81.60;;;;;;5092039;28;19909;-76
2023/05/05 12:51:30;;;;;;;;;;;28.20;81.20;;;;;;5093026;28;19908;-78
2023/05/05 12:54:02;;;;;;;;;;;27.60;81.50;;;;;;5091797;28;19927;-77
2023/05/05 12:56:28;;;;;;;;;;;27.30;82.10;;;;;;5093415;28;19911;-79
2023/05/05 12:58:54;;;;;;;;;;;26.90;81.40;;;;;;5092886;28;19952;-79
2023/05/05 13:01:20;;;;;;;;;;;26.20;80.90;;;;;;5091705;28;19924;-77
2023/05/05 13:03:45;;;;;;;;;;;25.80;81.50;;;;;;5092361;28;19962;-77
2023/05/05 13:06:18;;;;;;;;;;;25.50;81.10;;;;;;5074064;28;19912;-77
2023/05/05 13:08:44;;;;;;;;;;;25.20;80.50;;;;;;5091819;28;19912;-76
2023/05/05 13:11:09;;;;;;;;;;;24.80;80.30;;;;;;5091235;28;20351;-75
2023/05/05 13:13:36;;;;;;;;;;;24.40;80.10;;;;;;5092228;28;19956;-76
2023/05/05 13:16:01;;;;;;;;;;;24.10;80.00;;;;;;5091669;28;19920;-71
2023/05/05 13:18:27;;;;;;;;;;;23.80;80.10;;;;;;5091737;28;19916;-75
2023/05/05 13:20:52;;;;;;;;;;;23.50;80.10;;;;;;5091737;28;19965;-76
2023/05/05 13:23:18;;;;;;;;;;;23.40;80.50;;;;;;5092061;28;19919;-75
2023/05/05 13:25:44;;;;;;;;;;;23.50;80.90;;;;;;5090359;28;20002;-76
2023/05/05 13:28:09;;;;;;;;;;;23.80;80.90;;;;;;5091562;28;19912;-75
2023/05/05 13:30:35;;;;;;;;;;;24.20;80.80;;;;;;5092047;28;19922;-76
2023/05/05 13:33:02;;;;;;;;;;;24.30;80.10;;;;;;5091460;28;20292;-76
2023/05/05 13:35:29;;;;;;;;;;;24.20;79.50;;;;;;5090463;28;20314;-76
2023/05/05 13:37:54;;;;;;;;;;;23.80;79.40;;;;;;5090659;28;19939;-75
2023/05/05 13:40:20;;;;;;;;;;;23.50;79.50;;;;;;5091706;28;19912;-75
2023/05/05 13:42:46;;;;;;;;;;;23.30;79.70;;;;;;5090292;28;20386;-76
2023/05/05 13:45:12;;;;;;;;;;;23.20;79.80;;;;;;5090711;28;19943;-75
2023/05/05 13:47:39;;;;;;;;;;;23.00;79.70;;;;;;5091245;28;20002;-75
2023/05/05 13:50:06;;;;;;;;;;;22.80;79.80;;;;;;5091268;28;19931;-75
2023/05/05 13:52:31;;;;;;;;;;;22.70;79.70;;;;;;5090585;28;20395;-74
2023/05/05 13:54:57;;;;;;;;;;;22.70;79.90;;;;;;5090069;28;19912;-74
2023/05/05 13:57:23;;;;;;;;;;;22.80;79.90;;;;;;5089753;28;19916;-74
2023/05/05 13:59:48;;;;;;;;;;;22.80;79.90;;;;;;5090382;28;20007;-74
2023/05/05 14:02:14;;;;;;;;;;;22.90;80.10;;;;;;5090429;28;19942;-74
2023/05/05 14:04:40;;;;;;;;;;;23.10;80.00;;;;;;5089842;28;20009;-78
2023/05/05 14:07:05;;;;;;;;;;;23.30;79.70;;;;;;5090810;28;19980;-75
2023/05/05 14:09:31;;;;;;;;;;;23.20;79.50;;;;;;5090341;28;19912;-74
2023/05/05 14:11:57;;;;;;;;;;;23.10;79.40;;;;;;5089945;28;19916;-75
2023/05/05 14:14:23;;;;;;;;;;;22.90;79.10;;;;;;5088797;28;20387;-72
2023/05/05 14:16:49;;;;;;;;;;;22.70;79.40;;;;;;5089958;28;19908;-75